Time;durP1;ratioP1;P1;durP2;ratioP2;P2;SDS_P1;SDS_P2;PMS_P1;PMS_P2;Temp;Humidity;BMP_temperature;BMP_pressure;BME280_temperature;BME280_humidity;BME280_pressure;Samples;Min_cycle;Max_cycle;Signal;HPM_P1;HPM_P2
2024/01/08 00:02:02;;;;;;;0.50;0.50;;;-1.10;99.90;;;;;;5036158;28;20201;-80
2024/01/08 00:04:30;;;;;;;0.50;0.50;;;-1.20;99.90;;;;;;5037760;28;20216;-80
2024/01/08 00:06:57;;;;;;;0.95;0.95;;;-1.30;99.90;;;;;;5038758;28;20656;-80
2024/01/08 00:09:24;;;;;;;1.13;1.13;;;-1.30;99.90;;;;;;5037287;28;20203;-80
2024/01/08 00:11:50;;;;;;;0.50;0.50;;;-1.20;99.90;;;;;;5035730;28;20203;-80
2024/01/08 00:14:17;;;;;;;2.33;1.00;;;-1.30;99.90;;;;;;5035310;28;20216;-80
2024/01/08 00:16:44;;;;;;;0.60;0.60;;;-1.30;99.90;;;;;;5039393;28;20206;-80
2024/01/08 00:19:10;;;;;;;0.98;0.98;;;-1.30;99.90;;;;;;5042231;28;20196;-80
2024/01/08 00:21:39;;;;;;;0.88;0.88;;;-1.30;99.90;;;;;;5039156;28;20213;-80
2024/01/08 00:24:06;;;;;;;0.50;0.50;;;-1.40;99.90;;;;;;5039593;28;20207;-79
2024/01/08 00:26:32;;;;;;;3.25;3.05;;;-1.40;99.90;;;;;;5038744;28;20227;-80
2024/01/08 00:28:59;;;;;;;0.98;0.90;;;-1.40;99.90;;;;;;5039344;28;20204;-80
2024/01/08 00:31:26;;;;;;;0.93;0.85;;;-1.40;99.90;;;;;;5040447;28;20200;-80
2024/01/08 00:33:53;;;;;;;0.50;0.50;;;-1.50;99.90;;;;;;5042533;28;20211;-80
2024/01/08 00:36:20;;;;;;;2.10;2.00;;;-1.40;99.90;;;;;;5041507;28;20223;-80
2024/01/08 00:38:48;;;;;;;1.27;1.23;;;-1.40;99.90;;;;;;5039017;28;20203;-80
2024/01/08 00:41:14;;;;;;;0.50;0.50;;;-1.40;99.90;;;;;;5038244;28;20227;-80
2024/01/08 00:43:41;;;;;;;1.00;1.00;;;-1.50;99.90;;;;;;5030697;28;20209;-80
2024/01/08 00:46:08;;;;;;;1.45;1.45;;;-1.50;99.90;;;;;;5037905;28;20244;-80
2024/01/08 00:48:35;;;;;;;1.83;1.73;;;-1.50;99.90;;;;;;5039233;28;20203;-80
2024/01/08 00:51:02;;;;;;;1.52;1.52;;;-1.50;99.90;;;;;;5038911;28;20626;-80
2024/01/08 00:53:28;;;;;;;1.20;1.10;;;-1.50;99.90;;;;;;5039517;28;20220;-81
2024/01/08 00:55:57;;;;;;;1.65;1.58;;;-1.50;99.90;;;;;;5042112;28;20238;-80
2024/01/08 00:58:23;;;;;;;1.35;1.27;;;-1.50;99.90;;;;;;5040815;28;20321;-80
2024/01/08 01:00:50;;;;;;;0.50;0.50;;;-1.50;99.90;;;;;;5042456;28;20196;-81
2024/01/08 01:03:17;;;;;;;0.60;0.60;;;-1.60;99.90;;;;;;5041309;28;20200;-80
2024/01/08 01:05:43;;;;;;;1.10;1.10;;;-1.60;99.90;;;;;;5040960;28;20235;-79
2024/01/08 01:08:11;;;;;;;0.80;0.80;;;-1.60;99.90;;;;;;5040967;28;20206;-79
2024/01/08 01:10:38;;;;;;;0.70;0.70;;;-1.60;99.90;;;;;;5036948;28;20282;-79
2024/01/08 01:13:06;;;;;;;0.50;0.40;;;-1.70;99.90;;;;;;5037725;28;20211;-81
2024/01/08 01:15:33;;;;;;;1.10;1.10;;;-1.70;99.90;;;;;;5038662;28;20252;-79
2024/01/08 01:18:00;;;;;;;0.50;0.50;;;-1.70;99.90;;;;;;5042919;28;20205;-80
2024/01/08 01:20:27;;;;;;;0.80;0.73;;;-1.80;99.90;;;;;;5038567;28;20201;-80
2024/01/08 01:22:54;;;;;;;0.98;0.98;;;-1.90;99.90;;;;;;5041741;28;20567;-80
2024/01/08 01:25:20;;;;;;;0.98;0.73;;;-2.00;99.90;;;;;;5040592;28;20225;-77
2024/01/08 01:27:47;;;;;;;0.50;0.50;;;-2.00;99.90;;;;;;5037234;28;20200;-81
2024/01/08 01:30:16;;;;;;;0.50;0.50;;;-2.10;99.90;;;;;;5038322;28;20619;-80
2024/01/08 01:32:42;;;;;;;1.77;1.60;;;-2.20;99.90;;;;;;5045725;28;20197;-80
2024/01/08 01:35:09;;;;;;;0.70;0.70;;;-2.20;99.90;;;;;;5037722;28;20235;-80
2024/01/08 01:37:36;;;;;;;0.50;0.50;;;-2.30;99.90;;;;;;5039762;28;20208;-80
2024/01/08 01:40:03;;;;;;;1.33;1.23;;;-2.40;99.90;;;;;;5041344;28;20196;-80
2024/01/08 01:42:30;;;;;;;2.22;2.03;;;-2.40;99.90;;;;;;5039128;28;20290;-80
2024/01/08 01:44:57;;;;;;;0.50;0.50;;;-2.40;99.90;;;;;;5037163;28;20220;-80
2024/01/08 01:47:25;;;;;;;0.50;0.50;;;-2.40;99.90;;;;;;5037062;28;20208;-80
2024/01/08 01:49:53;;;;;;;0.50;0.50;;;-2.30;99.90;;;;;;5041140;28;20206;-80
2024/01/08 01:52:21;;;;;;;0.50;0.50;;;-2.30;99.90;;;;;;5040912;28;20204;-80
2024/01/08 01:54:49;;;;;;;0.50;0.50;;;-2.30;99.90;;;;;;5041338;28;20212;-80
2024/01/08 01:57:18;;;;;;;0.50;0.40;;;-2.40;99.90;;;;;;5040314;28;20210;-80
2024/01/08 01:59:45;;;;;;;0.60;0.60;;;-2.40;99.90;;;;;;5036864;28;20219;-80
2024/01/08 02:02:14;;;;;;;0.50;0.50;;;-2.50;99.90;;;;;;5037030;28;20203;-80
2024/01/08 02:04:43;;;;;;;0.50;0.50;;;-2.50;99.90;;;;;;5038295;28;20220;-80
2024/01/08 02:07:10;;;;;;;1.40;1.40;;;-2.50;99.90;;;;;;5040886;28;20195;-80
2024/01/08 02:09:38;;;;;;;0.50;0.50;;;-2.50;99.90;;;;;;5037356;28;20214;-80
2024/01/08 02:12:06;;;;;;;0.65;0.65;;;-2.40;99.90;;;;;;5037048;28;20276;-80
2024/01/08 02:14:33;;;;;;;0.50;0.50;;;-2.40;99.90;;;;;;5037559;28;20228;-80
2024/01/08 02:17:00;;;;;;;0.50;0.50;;;-2.40;99.90;;;;;;5040056;28;20275;-80
2024/01/08 02:19:27;;;;;;;0.63;0.60;;;-2.30;99.90;;;;;;5039789;28;20207;-80
2024/01/08 02:21:55;;;;;;;6.05;0.88;;;-2.30;99.90;;;;;;5036934;28;20196;-80
2024/01/08 02:24:23;;;;;;;0.50;0.50;;;-2.20;99.90;;;;;;5037396;28;20208;-80
2024/01/08 02:26:50;;;;;;;1.40;1.30;;;-2.20;99.90;;;;;;5040369;28;20210;-81
2024/01/08 02:29:19;;;;;;;1.42;1.42;;;-2.10;99.90;;;;;;5040528;28;20703;-81
2024/01/08 02:31:46;;;;;;;1.05;1.05;;;-2.10;99.90;;;;;;5037844;28;20222;-80
2024/01/08 02:34:12;;;;;;;0.90;0.90;;;-2.10;99.90;;;;;;5037669;28;20223;-80
2024/01/08 02:36:39;;;;;;;1.40;0.60;;;-2.10;99.90;;;;;;5044419;28;20679;-80
2024/01/08 02:39:06;;;;;;;1.77;1.67;;;-2.10;99.90;;;;;;5036641;28;20644;-79
2024/01/08 02:41:34;;;;;;;1.42;1.33;;;-2.10;99.90;;;;;;5037134;28;20688;-80
2024/01/08 02:44:01;;;;;;;0.60;0.60;;;-2.10;99.90;;;;;;5041394;28;20202;-81
2024/01/08 02:46:28;;;;;;;0.50;0.43;;;-2.00;99.90;;;;;;5039994;28;20239;-78
2024/01/08 02:48:55;;;;;;;0.90;0.90;;;-2.00;99.90;;;;;;5037587;28;20196;-80
2024/01/08 02:51:21;;;;;;;0.50;0.50;;;-2.00;99.90;;;;;;5038155;28;20196;-80
2024/01/08 02:53:48;;;;;;;4.18;3.45;;;-2.00;99.90;;;;;;5040301;28;20793;-80
2024/01/08 02:56:23;;;;;;;0.50;0.50;;;-2.00;99.90;;;;;;5039510;28;20219;-81
2024/01/08 02:58:51;;;;;;;0.95;0.95;;;-1.90;99.90;;;;;;5039215;28;20203;-81
2024/01/08 03:01:18;;;;;;;1.92;0.95;;;-1.90;99.90;;;;;;5039827;28;20210;-80
2024/01/08 03:03:44;;;;;;;1.17;1.08;;;-1.90;99.90;;;;;;5037585;28;20195;-80
2024/01/08 03:06:11;;;;;;;0.50;0.50;;;-1.80;99.90;;;;;;5037026;28;20224;-80
2024/01/08 03:08:38;;;;;;;1.45;1.35;;;-1.80;99.90;;;;;;5036876;28;20200;-80
2024/01/08 03:11:05;;;;;;;0.82;0.82;;;-1.90;99.90;;;;;;5040348;28;20595;-80
2024/01/08 03:13:31;;;;;;;0.50;0.50;;;-1.80;99.90;;;;;;5038601;28;20218;-80
2024/01/08 03:16:00;;;;;;;1.40;1.30;;;-1.80;99.90;;;;;;5031795;28;20230;-78
2024/01/08 03:18:27;;;;;;;1.83;1.75;;;-1.80;99.90;;;;;;5039002;28;20231;-80
2024/01/08 03:20:54;;;;;;;0.68;0.68;;;-1.80;99.90;;;;;;5036707;28;20226;-80
2024/01/08 03:23:20;;;;;;;0.80;0.80;;;-1.80;99.90;;;;;;5036307;28;20200;-80
2024/01/08 03:25:47;;;;;;;1.92;1.83;;;-1.80;99.90;;;;;;5045046;28;20226;-79
2024/01/08 03:28:14;;;;;;;1.73;1.15;;;-1.80;99.90;;;;;;5035882;28;20200;-79
2024/01/08 03:30:41;;;;;;;0.70;0.60;;;-1.80;99.90;;;;;;5036058;28;20196;-80
2024/01/08 03:33:09;;;;;;;3.72;1.95;;;-1.70;99.90;;;;;;5036051;28;20196;-80
2024/01/08 03:35:36;;;;;;;0.50;0.40;;;-1.70;99.90;;;;;;5028332;28;20224;-81
2024/01/08 03:38:03;;;;;;;0.50;0.50;;;-1.80;99.90;;;;;;5036230;28;20206;-80
2024/01/08 03:40:29;;;;;;;0.52;0.52;;;-1.80;99.90;;;;;;5035280;28;20587;-80
2024/01/08 03:42:56;;;;;;;0.50;0.50;;;-1.70;99.90;;;;;;5039435;28;20206;-81
2024/01/08 03:45:23;;;;;;;1.70;1.27;;;-1.70;99.90;;;;;;5039599;28;20219;-80
2024/01/08 03:47:50;;;;;;;2.38;2.28;;;-1.70;99.90;;;;;;5037456;28;20196;-80
2024/01/08 03:50:18;;;;;;;0.73;0.73;;;-1.70;99.90;;;;;;5035594;28;20207;-80
2024/01/08 03:52:44;;;;;;;1.08;1.08;;;-1.70;99.90;;;;;;5041057;28;20203;-80
2024/01/08 03:55:11;;;;;;;0.50;0.40;;;-1.60;99.90;;;;;;5038141;28;20230;-81
2024/01/08 03:57:38;;;;;;;0.50;0.50;;;-1.60;99.90;;;;;;5040925;28;20208;-80
2024/01/08 04:00:06;;;;;;;0.50;0.50;;;-1.70;99.90;;;;;;5042188;28;20203;-80
2024/01/08 04:02:33;;;;;;;0.50;0.40;;;-1.70;99.90;;;;;;5036897;28;20681;-78
2024/01/08 04:04:59;;;;;;;1.70;1.60;;;-1.70;99.90;;;;;;5038300;28;20222;-79
2024/01/08 04:07:27;;;;;;;1.63;1.52;;;-1.70;99.90;;;;;;5038063;28;20609;-79
2024/01/08 04:09:54;;;;;;;2.15;1.00;;;-1.70;99.90;;;;;;5037214;28;20200;-80
2024/01/08 04:12:21;;;;;;;0.50;0.50;;;-1.60;99.90;;;;;;5036552;28;20197;-80
2024/01/08 04:14:47;;;;;;;0.50;0.50;;;-1.60;99.90;;;;;;5036924;28;20226;-79
2024/01/08 04:17:14;;;;;;;0.50;0.50;;;-1.60;99.90;;;;;;5039897;28;20200;-78
2024/01/08 04:19:41;;;;;;;1.02;0.95;;;-1.60;99.90;;;;;;5038905;28;20191;-78
2024/01/08 04:22:08;;;;;;;1.48;1.38;;;-1.60;99.90;;;;;;5037140;28;20204;-79
2024/01/08 04:24:36;;;;;;;1.02;1.02;;;-1.70;99.90;;;;;;5037704;28;20199;-80
2024/01/08 04:27:02;;;;;;;0.50;0.50;;;-1.70;99.90;;;;;;5028845;28;20197;-79
2024/01/08 04:29:29;;;;;;;1.65;1.55;;;-1.70;99.90;;;;;;5036896;28;20207;-79
2024/01/08 04:31:56;;;;;;;0.70;0.70;;;-1.70;99.90;;;;;;5035293;28;20204;-79
2024/01/08 04:34:23;;;;;;;1.45;0.82;;;-1.70;99.90;;;;;;5034743;28;20220;-79
2024/01/08 04:36:50;;;;;;;1.00;0.85;;;-1.70;99.90;;;;;;5034223;28;20207;-77
2024/01/08 04:39:17;;;;;;;0.50;0.40;;;-1.80;99.90;;;;;;5034961;28;20195;-80
2024/01/08 04:41:45;;;;;;;1.88;1.77;;;-1.80;99.90;;;;;;5037541;28;20295;-79
2024/01/08 04:44:11;;;;;;;1.15;1.15;;;-1.80;99.90;;;;;;5038083;28;20192;-80
2024/01/08 04:46:38;;;;;;;0.50;0.50;;;-1.80;99.90;;;;;;5036036;28;20216;-77
2024/01/08 04:49:05;;;;;;;2.55;1.55;;;-1.80;99.90;;;;;;5027026;28;20196;-80
2024/01/08 04:51:33;;;;;;;1.55;1.45;;;-1.80;99.90;;;;;;5034785;28;20203;-78
2024/01/08 04:54:00;;;;;;;1.77;1.15;;;-1.80;99.90;;;;;;5034712;28;20812;-79
2024/01/08 04:56:28;;;;;;;5.15;2.05;;;-1.80;99.90;;;;;;5031157;28;20639;-80
2024/01/08 04:58:56;;;;;;;3.55;1.40;;;-1.80;99.90;;;;;;5033716;28;20720;-80
2024/01/08 05:01:23;;;;;;;6.82;2.78;;;-1.80;99.90;;;;;;5037115;28;20196;-79
2024/01/08 05:03:50;;;;;;;2.33;1.55;;;-1.80;99.90;;;;;;5039354;28;20216;-79
2024/01/08 05:06:17;;;;;;;0.70;0.70;;;-1.80;99.90;;;;;;5041950;28;20220;-80
2024/01/08 05:08:44;;;;;;;3.25;2.97;;;-1.70;99.90;;;;;;5041133;28;20196;-79
2024/01/08 05:11:12;;;;;;;1.58;1.48;;;-1.70;99.90;;;;;;5034406;28;20192;-80
2024/01/08 05:13:40;;;;;;;0.80;0.77;;;-1.70;99.90;;;;;;5041223;28;20235;-80
2024/01/08 05:16:08;;;;;;;0.50;0.50;;;-1.70;99.90;;;;;;5029647;28;20793;-80
2024/01/08 05:18:35;;;;;;;1.60;1.20;;;-1.70;99.90;;;;;;5037699;28;20207;-81
2024/01/08 05:21:03;;;;;;;0.98;0.98;;;-1.70;99.90;;;;;;5037542;28;20201;-81
2024/01/08 05:23:30;;;;;;;0.50;0.50;;;-1.70;99.90;;;;;;5037031;28;20221;-79
2024/01/08 05:25:58;;;;;;;4.93;2.78;;;-1.70;99.90;;;;;;5038732;28;20231;-79
2024/01/08 05:28:25;;;;;;;0.70;0.70;;;-1.70;99.90;;;;;;5034638;28;20204;-80
2024/01/08 05:30:52;;;;;;;0.50;0.45;;;-1.70;99.90;;;;;;5038294;28;20247;-80
2024/01/08 05:33:21;;;;;;;0.90;0.70;;;-1.70;99.90;;;;;;5040784;28;20196;-80
2024/01/08 05:35:48;;;;;;;0.55;0.55;;;-1.70;99.90;;;;;;5038335;28;20220;-82
2024/01/08 05:38:14;;;;;;;1.98;1.70;;;-1.80;99.90;;;;;;5036957;28;20200;-81
2024/01/08 05:40:41;;;;;;;12.95;3.65;;;-1.70;99.90;;;;;;5040710;28;20199;-81
2024/01/08 05:43:08;;;;;;;0.50;0.50;;;-1.70;99.90;;;;;;5037773;28;20211;-81
2024/01/08 05:45:34;;;;;;;3.38;3.10;;;-1.70;99.90;;;;;;5044521;28;20216;-80
2024/01/08 05:48:01;;;;;;;0.93;0.82;;;-1.60;99.90;;;;;;5045379;28;20206;-81
2024/01/08 05:50:29;;;;;;;0.50;0.50;;;-1.60;99.90;;;;;;5037927;28;20196;-80
2024/01/08 05:52:56;;;;;;;0.50;0.50;;;-1.60;99.90;;;;;;5037745;28;20200;-80
2024/01/08 05:55:24;;;;;;;1.30;1.25;;;-1.60;99.90;;;;;;5037767;28;20223;-80
2024/01/08 05:57:51;;;;;;;2.40;1.80;;;-1.60;99.90;;;;;;5038267;28;20264;-81
2024/01/08 06:00:18;;;;;;;0.60;0.60;;;-1.60;99.90;;;;;;5041199;28;20216;-81
2024/01/08 06:02:46;;;;;;;0.50;0.50;;;-1.60;99.90;;;;;;5040760;28;20206;-78
2024/01/08 06:05:12;;;;;;;0.70;0.70;;;-1.60;99.90;;;;;;5033421;28;20215;-80
2024/01/08 06:07:41;;;;;;;1.80;1.23;;;-1.60;99.90;;;;;;5039773;28;20588;-81
2024/01/08 06:10:08;;;;;;;1.90;1.80;;;-1.60;99.90;;;;;;5037463;28;20196;-80
2024/01/08 06:12:35;;;;;;;4.13;3.83;;;-1.60;99.90;;;;;;5036724;28;20200;-81
2024/01/08 06:15:02;;;;;;;0.50;0.50;;;-1.60;99.90;;;;;;5039182;28;20300;-80
2024/01/08 06:17:28;;;;;;;2.00;1.90;;;-1.60;99.90;;;;;;5043289;28;20692;-80
2024/01/08 06:19:55;;;;;;;2.83;1.15;;;-1.60;99.90;;;;;;5047848;28;20210;-79
2024/01/08 06:22:22;;;;;;;0.50;0.40;;;-1.60;99.90;;;;;;5044038;28;20226;-80
2024/01/08 06:24:51;;;;;;;0.50;0.50;;;-1.60;99.90;;;;;;5032776;28;20265;-80
2024/01/08 06:27:18;;;;;;;3.45;2.88;;;-1.60;99.90;;;;;;5029710;28;20220;-80
2024/01/08 06:29:44;;;;;;;0.60;0.60;;;-1.60;99.90;;;;;;5036723;28;20196;-81
2024/01/08 06:32:11;;;;;;;1.52;1.42;;;-1.60;99.90;;;;;;5029570;28;20672;-78
2024/01/08 06:34:38;;;;;;;1.05;1.05;;;-1.60;99.90;;;;;;5043568;28;20302;-81
2024/01/08 06:37:04;;;;;;;1.92;1.83;;;-1.60;99.90;;;;;;5047761;28;20195;-81
2024/01/08 06:39:31;;;;;;;0.65;0.63;;;-1.60;99.90;;;;;;5049002;28;20195;-80
2024/01/08 06:41:59;;;;;;;1.45;1.38;;;-1.60;99.90;;;;;;5048904;28;20196;-80
2024/01/08 06:44:26;;;;;;;3.75;3.05;;;-1.60;99.90;;;;;;5043801;28;20196;-81
2024/01/08 06:46:53;;;;;;;2.25;0.90;;;-1.60;99.90;;;;;;5028062;28;20215;-80
2024/01/08 06:49:19;;;;;;;0.80;0.80;;;-1.60;99.90;;;;;;5028176;28;20195;-80
2024/01/08 06:51:46;;;;;;;0.70;0.63;;;-1.50;99.90;;;;;;5028519;28;20676;-81
2024/01/08 06:54:13;;;;;;;2.47;2.28;;;-1.50;99.90;;;;;;5027870;28;20224;-81
2024/01/08 06:56:40;;;;;;;0.50;0.50;;;-1.40;99.90;;;;;;5037030;28;20274;-80
2024/01/08 06:59:08;;;;;;;1.52;1.48;;;-1.40;99.90;;;;;;5027294;28;20200;-80
2024/01/08 07:01:35;;;;;;;1.13;1.02;;;-1.40;99.90;;;;;;5034663;28;20219;-80
2024/01/08 07:04:02;;;;;;;1.30;1.30;;;-1.40;99.90;;;;;;5037761;28;20193;-80
2024/01/08 07:06:29;;;;;;;4.05;1.50;;;-1.40;99.90;;;;;;5027693;28;20213;-78
2024/01/08 07:08:55;;;;;;;3.53;1.40;;;-1.40;99.90;;;;;;5036991;28;20218;-80
2024/01/08 07:11:23;;;;;;;0.50;0.50;;;-1.30;99.90;;;;;;5035329;28;20196;-80
2024/01/08 07:13:53;;;;;;;1.92;1.83;;;-1.30;99.90;;;;;;5027539;28;20212;-80
2024/01/08 07:16:21;;;;;;;1.90;1.60;;;-1.20;99.90;;;;;;5020800;28;20224;-77
2024/01/08 07:18:48;;;;;;;0.85;0.85;;;-1.30;99.90;;;;;;5034617;28;20251;-79
2024/01/08 07:21:16;;;;;;;0.50;0.50;;;-1.30;99.90;;;;;;5045007;28;20197;-80
2024/01/08 07:23:45;;;;;;;0.55;0.55;;;-1.40;99.90;;;;;;5042660;28;20192;-79
2024/01/08 07:26:14;;;;;;;3.75;1.45;;;-1.40;99.90;;;;;;5046239;28;20706;-80
2024/01/08 07:28:41;;;;;;;0.50;0.50;;;-1.40;99.90;;;;;;5047824;28;20192;-81
2024/01/08 07:31:07;;;;;;;1.75;1.65;;;-1.50;99.90;;;;;;5038661;28;20215;-82
2024/01/08 07:33:36;;;;;;;4.95;2.40;;;-1.50;99.90;;;;;;5029432;28;20193;-82
2024/01/08 07:36:03;;;;;;;1.38;1.38;;;-1.50;99.90;;;;;;5045775;28;20219;-83
2024/01/08 07:38:30;;;;;;;1.15;1.05;;;-1.40;99.90;;;;;;5048713;28;20643;-82
2024/01/08 07:40:57;;;;;;;0.50;0.47;;;-1.40;99.90;;;;;;5031548;28;20207;-83
2024/01/08 07:43:24;;;;;;;2.25;1.55;;;-1.40;99.90;;;;;;5029660;28;20196;-83
2024/01/08 07:45:52;;;;;;;1.08;1.05;;;-1.40;99.90;;;;;;5030212;28;20232;-82
2024/01/08 07:48:18;;;;;;;2.25;0.77;;;-1.40;99.90;;;;;;5048587;28;20235;-83
2024/01/08 07:50:47;;;;;;;0.80;0.80;;;-1.40;99.90;;;;;;5041836;28;20192;-82
2024/01/08 07:53:14;;;;;;;0.50;0.40;;;-1.40;99.90;;;;;;5028743;28;20200;-82
2024/01/08 07:55:40;;;;;;;0.90;0.90;;;-1.40;99.90;;;;;;5034102;28;20219;-82
2024/01/08 07:58:09;;;;;;;1.92;1.83;;;-1.40;99.90;;;;;;5048497;28;20202;-82
2024/01/08 08:00:36;;;;;;;4.28;3.10;;;-1.50;99.90;;;;;;5043061;28;20219;-82
2024/01/08 08:03:04;;;;;;;7.18;2.47;;;-1.40;99.90;;;;;;5029885;28;20273;-83
2024/01/08 08:05:31;;;;;;;4.22;2.30;;;-1.50;99.90;;;;;;5048263;28;20689;-82
2024/01/08 08:07:59;;;;;;;0.50;0.50;;;-1.40;99.90;;;;;;5048675;28;20267;-81
2024/01/08 08:10:26;;;;;;;0.93;0.93;;;-1.40;99.90;;;;;;5048332;28;20223;-80
2024/01/08 08:12:52;;;;;;;1.00;1.00;;;-1.40;99.90;;;;;;5047943;28;20213;-82
2024/01/08 08:15:19;;;;;;;0.70;0.70;;;-1.40;99.90;;;;;;5039667;28;20235;-80
2024/01/08 08:17:46;;;;;;;2.70;2.50;;;-1.40;99.90;;;;;;5033381;28;20260;-81
2024/01/08 08:20:13;;;;;;;0.80;0.80;;;-1.40;99.90;;;;;;5046972;28;20206;-82
2024/01/08 08:22:40;;;;;;;0.50;0.50;;;-1.30;99.90;;;;;;5048459;28;20206;-83
2024/01/08 08:25:08;;;;;;;6.00;2.05;;;-1.30;99.90;;;;;;5038974;28;20709;-83
2024/01/08 08:27:35;;;;;;;1.35;1.25;;;-1.30;99.90;;;;;;5043706;28;20193;-82
2024/01/08 08:30:02;;;;;;;1.00;0.75;;;-1.30;99.90;;;;;;5027991;28;20266;-83
2024/01/08 08:32:29;;;;;;;0.80;0.80;;;-1.30;99.90;;;;;;5040508;28;20261;-79
2024/01/08 08:34:56;;;;;;;0.90;0.85;;;-1.20;99.90;;;;;;5042151;28;20214;-82
2024/01/08 08:37:23;;;;;;;4.35;2.03;;;-1.20;99.90;;;;;;5051349;28;20231;-79
2024/01/08 08:39:49;;;;;;;1.17;0.60;;;-1.20;99.90;;;;;;5038821;28;20259;-82
2024/01/08 08:42:17;;;;;;;1.88;1.77;;;-1.20;99.90;;;;;;5051756;28;20192;-82
2024/01/08 08:44:44;;;;;;;0.50;0.50;;;-1.20;99.90;;;;;;5052496;28;20634;-82
2024/01/08 08:47:11;;;;;;;0.50;0.40;;;-1.30;99.90;;;;;;5050274;28;20252;-82
2024/01/08 08:49:39;;;;;;;2.67;1.92;;;-1.30;99.90;;;;;;5045359;28;20303;-81
2024/01/08 08:52:06;;;;;;;0.50;0.50;;;-1.40;99.90;;;;;;5044835;28;20259;-81
2024/01/08 08:54:33;;;;;;;0.50;0.50;;;-1.40;99.90;;;;;;5049177;28;20193;-82
2024/01/08 08:57:01;;;;;;;2.17;1.98;;;-1.40;99.90;;;;;;5039858;28;20216;-80
2024/01/08 08:59:29;;;;;;;1.85;1.15;;;-1.40;99.90;;;;;;5023411;28;20214;-81
2024/01/08 09:01:58;;;;;;;0.50;0.40;;;-1.40;99.90;;;;;;5046546;28;20223;-81
2024/01/08 09:04:25;;;;;;;1.88;1.40;;;-1.40;99.90;;;;;;5034135;28;20196;-80
2024/01/08 09:06:51;;;;;;;1.05;0.90;;;-1.50;99.90;;;;;;5051546;28;20188;-83
2024/01/08 09:09:18;;;;;;;2.35;1.42;;;-1.40;99.90;;;;;;5047887;28;20243;-82
2024/01/08 09:11:46;;;;;;;0.50;0.50;;;-1.40;99.90;;;;;;5030894;28;20203;-82
2024/01/08 09:14:13;;;;;;;0.50;0.50;;;-1.30;99.90;;;;;;5039036;28;20203;-82
2024/01/08 09:16:41;;;;;;;1.13;1.02;;;-1.30;99.90;;;;;;5030786;28;20283;-82
2024/01/08 09:19:07;;;;;;;3.72;2.28;;;-1.30;99.90;;;;;;5030951;28;20268;-82
2024/01/08 09:21:34;;;;;;;2.45;1.17;;;-1.20;99.90;;;;;;5038924;28;20206;-80
2024/01/08 09:24:01;;;;;;;3.53;0.90;;;-1.10;99.90;;;;;;5044324;28;20275;-82
2024/01/08 09:26:28;;;;;;;1.30;0.95;;;-1.00;99.90;;;;;;5040183;28;20327;-82
2024/01/08 09:28:54;;;;;;;0.70;0.70;;;-0.90;99.90;;;;;;5040485;28;20666;-83
2024/01/08 09:31:21;;;;;;;1.05;0.80;;;-0.70;99.90;;;;;;5031987;28;20216;-82
2024/01/08 09:33:51;;;;;;;3.15;2.95;;;-0.40;99.90;;;;;;5032123;28;20268;-82
2024/01/08 09:36:17;;;;;;;0.50;0.50;;;-0.30;99.90;;;;;;5039780;28;20212;-82
2024/01/08 09:38:46;;;;;;;0.93;0.82;;;0.10;99.90;;;;;;5039536;28;20256;-83
2024/01/08 09:41:13;;;;;;;0.82;0.73;;;0.40;99.90;;;;;;5032296;28;20225;-82
2024/01/08 09:43:40;;;;;;;3.55;2.45;;;0.60;99.90;;;;;;5038196;28;20204;-82
2024/01/08 09:46:09;;;;;;;0.85;0.85;;;0.50;99.90;;;;;;5038719;28;20235;-81
2024/01/08 09:48:36;;;;;;;0.90;0.90;;;0.60;99.90;;;;;;5033957;28;20192;-83
2024/01/08 09:51:05;;;;;;;0.80;0.63;;;0.60;99.90;;;;;;5035401;28;20196;-82
2024/01/08 09:53:32;;;;;;;1.55;1.45;;;0.50;99.90;;;;;;5034164;28;20389;-79
2024/01/08 09:56:00;;;;;;;0.70;0.70;;;0.40;99.90;;;;;;5050597;28;20235;-79
2024/01/08 09:58:27;;;;;;;2.38;2.17;;;0.20;99.90;;;;;;5031947;28;20683;-81
2024/01/08 10:00:54;;;;;;;0.70;0.60;;;0.00;99.90;;;;;;5036760;28;20282;-82
2024/01/08 10:03:21;;;;;;;0.50;0.50;;;0.10;99.90;;;;;;5034348;28;20291;-83
2024/01/08 10:05:48;;;;;;;1.45;0.70;;;0.10;99.90;;;;;;5046642;28;20215;-81
2024/01/08 10:08:17;;;;;;;0.50;0.50;;;0.30;99.90;;;;;;5034163;28;20204;-82
2024/01/08 10:10:44;;;;;;;0.50;0.50;;;0.40;99.90;;;;;;5051046;28;20239;-81
2024/01/08 10:13:12;;;;;;;1.25;1.17;;;0.40;95.60;;;;;;5035467;28;20227;-80
2024/01/08 10:15:39;;;;;;;3.58;1.70;;;0.40;94.80;;;;;;5041506;28;20216;-82
2024/01/08 10:18:09;;;;;;;0.50;0.50;;;0.20;93.90;;;;;;5041156;28;20227;-81
2024/01/08 10:20:36;;;;;;;0.50;0.40;;;0.50;95.70;;;;;;5020637;28;20189;-82
2024/01/08 10:23:06;;;;;;;0.50;0.50;;;0.80;98.40;;;;;;5044309;28;20663;-81
2024/01/08 10:25:36;;;;;;;1.77;1.67;;;1.30;99.90;;;;;;5032758;28;20203;-82
2024/01/08 10:28:03;;;;;;;0.50;0.40;;;1.80;99.90;;;;;;5034198;28;20192;-85
2024/01/08 10:30:30;;;;;;;0.50;0.40;;;2.10;97.80;;;;;;5029724;28;20204;-81
2024/01/08 10:32:59;;;;;;;0.50;0.40;;;2.30;97.60;;;;;;5029129;28;20684;-83
2024/01/08 10:35:28;;;;;;;1.80;1.70;;;2.30;96.50;;;;;;5029400;28;20243;-84
2024/01/08 10:37:56;;;;;;;0.50;0.40;;;2.30;95.20;;;;;;5034751;28;20223;-82
2024/01/08 10:40:23;;;;;;;3.80;0.80;;;2.20;94.60;;;;;;5040516;28;20201;-82
2024/01/08 10:42:51;;;;;;;0.50;0.50;;;2.30;93.70;;;;;;5043722;28;20227;-83
2024/01/08 10:45:18;;;;;;;0.50;0.50;;;2.30;93.50;;;;;;5029054;28;20219;-83
2024/01/08 10:47:50;;;;;;;0.88;0.88;;;2.70;93.40;;;;;;5029518;28;20189;-84
2024/01/08 10:50:20;;;;;;;2.25;2.15;;;3.00;91.30;;;;;;5045412;28;20287;-84
2024/01/08 10:52:53;;;;;;;0.70;0.70;;;3.50;91.00;;;;;;5036534;28;20196;-83
2024/01/08 10:55:22;;;;;;;0.50;0.50;;;4.10;90.10;;;;;;5029371;28;20266;-82
2024/01/08 10:57:56;;;;;;;0.82;0.82;;;4.10;84.00;;;;;;5041813;28;20283;-83
2024/01/08 11:00:23;;;;;;;0.50;0.40;;;3.90;82.50;;;;;;5047786;28;20221;-84
2024/01/08 11:02:51;;;;;;;0.75;0.75;;;3.80;81.10;;;;;;5042404;28;20188;-82
2024/01/08 11:05:20;;;;;;;2.85;2.65;;;3.60;80.30;;;;;;5032951;28;20279;-83
2024/01/08 11:07:50;;;;;;;1.35;0.82;;;3.30;79.10;;;;;;5044568;28;20180;-82
2024/01/08 11:10:17;;;;;;;0.77;0.60;;;2.70;77.70;;;;;;5045491;28;20196;-81
2024/01/08 11:12:52;;;;;;;0.50;0.47;;;2.40;77.90;;;;;;5036718;28;20214;-82
2024/01/08 11:15:19;;;;;;;9.00;2.72;;;2.30;79.60;;;;;;5055115;28;20246;-82
2024/01/08 11:17:51;;;;;;;0.70;0.70;;;2.20;79.70;;;;;;5049951;28;20220;-82
2024/01/08 11:20:43;;;;;;;0.60;0.60;;;2.30;79.50;;;;;;5042989;28;20259;-81
2024/01/08 11:23:37;;;;;;;0.60;0.40;;;2.50;78.20;;;;;;5047373;28;20227;-82
2024/01/08 11:26:05;;;;;;;0.85;0.85;;;2.40;76.40;;;;;;5041171;28;20212;-79
2024/01/08 11:28:36;;;;;;;0.50;0.40;;;2.10;75.30;;;;;;5036075;28;20244;-82
2024/01/08 11:31:47;;;;;;;0.55;0.55;;;1.90;77.60;;;;;;5040895;28;20186;-81
2024/01/08 11:34:50;;;;;;;1.35;0.98;;;1.10;75.20;;;;;;5044540;28;20226;-82
2024/01/08 11:37:39;;;;;;;1.25;0.80;;;0.90;78.40;;;;;;5030365;28;20223;-81
2024/01/08 11:40:15;;;;;;;0.60;0.60;;;0.60;77.00;;;;;;5043536;28;20260;-82
2024/01/08 11:42:43;;;;;;;0.50;0.50;;;0.70;79.20;;;;;;5043416;28;20196;-82
2024/01/08 11:45:11;;;;;;;0.50;0.50;;;0.80;78.90;;;;;;5035427;28;20226;-83
2024/01/08 11:47:39;;;;;;;0.80;0.80;;;1.20;78.90;;;;;;5048153;28;20191;-82
2024/01/08 11:50:07;;;;;;;0.60;0.60;;;1.40;78.00;;;;;;5048356;28;20198;-82
2024/01/08 11:52:34;;;;;;;0.60;0.60;;;1.50;77.50;;;;;;5040335;28;20596;-82
2024/01/08 11:55:01;;;;;;;0.80;0.80;;;1.90;77.90;;;;;;5048731;28;20270;-82
2024/01/08 11:57:28;;;;;;;0.90;0.90;;;2.60;77.00;;;;;;5048202;28;20219;-79
2024/01/08 11:59:55;;;;;;;4.32;3.17;;;3.00;71.80;;;;;;5049022;28;20198;-82
2024/01/08 12:02:27;;;;;;;2.45;2.35;;;3.20;70.20;;;;;;5047063;28;20195;-81
2024/01/08 12:04:55;;;;;;;0.70;0.65;;;3.70;71.40;;;;;;5044752;28;20219;-83
2024/01/08 12:07:23;;;;;;;1.60;1.52;;;3.50;70.20;;;;;;5028916;28;20199;-81
2024/01/08 12:09:49;;;;;;;0.50;0.40;;;3.30;70.50;;;;;;5029151;28;20268;-83
2024/01/08 12:12:18;;;;;;;1.45;1.35;;;3.20;71.40;;;;;;5045331;28;20192;-82
2024/01/08 12:14:45;;;;;;;2.28;1.27;;;3.00;72.10;;;;;;5041126;28;20853;-83
2024/01/08 12:17:13;;;;;;;0.75;0.75;;;3.00;72.10;;;;;;5039356;28;20222;-82
2024/01/08 12:19:45;;;;;;;1.70;1.60;;;2.70;71.50;;;;;;5051982;28;20196;-83
2024/01/08 12:22:12;;;;;;;0.50;0.40;;;2.30;71.60;;;;;;5051795;28;20204;-82
2024/01/08 12:24:40;;;;;;;2.25;0.73;;;2.10;74.10;;;;;;5053470;28;20260;-83
2024/01/08 12:27:08;;;;;;;4.63;1.50;;;1.90;73.00;;;;;;5052075;28;20191;-82
2024/01/08 12:29:38;;;;;;;0.50;0.50;;;1.60;72.60;;;;;;5042489;28;20688;-82
2024/01/08 12:32:06;;;;;;;2.67;1.17;;;1.50;72.70;;;;;;5032578;28;20200;-82
2024/01/08 12:34:33;;;;;;;1.33;1.23;;;1.30;72.90;;;;;;5049724;28;20200;-82
2024/01/08 12:37:02;;;;;;;1.13;1.02;;;1.00;72.60;;;;;;5051067;28;20733;-82
2024/01/08 12:39:30;;;;;;;3.28;3.08;;;0.70;74.40;;;;;;5051741;28;20200;-80
2024/01/08 12:41:58;;;;;;;0.80;0.80;;;0.40;75.30;;;;;;5039787;28;20201;-81
2024/01/08 12:44:25;;;;;;;0.77;0.77;;;0.30;76.00;;;;;;5048451;28;20672;-81
2024/01/08 12:46:53;;;;;;;1.52;1.42;;;0.30;76.70;;;;;;5047194;28;20192;-81
2024/01/08 12:49:19;;;;;;;1.02;0.63;;;0.20;76.80;;;;;;5032660;28;20196;-80
2024/01/08 12:51:46;;;;;;;0.60;0.60;;;0.10;76.10;;;;;;5048767;28;20268;-81
2024/01/08 12:54:14;;;;;;;1.48;1.35;;;0.10;74.50;;;;;;5031927;28;20195;-80